General Mariano Matamoros Airport
MMCB : now visible

Airfield :











YOU CAN JOIN US ON...

 
LOGIN :

Register | Disclaimer

   EN    FR    IT 

 









Legend :    VFR   Marginal VFR   IFR   Intensive IFR   Very Intensive IFR
Visi :
Ceiling :
>= 8 km
>= 3000ft
5 to 8 km
1000 to 3000 ft
1500m to 5 km
500 to 1000 ft
800 to 1500m
200 to 500 ft
< 800m
< 200 ft
Symbols :   Thunderstorms  Fog  Heavy snow  Heavy precipitations  Wind > 20 kt






- Airport Elevation : 4277 ft
- IATA code : CVJ


MMCB - General Mariano Matamoros

CURRENT METAR :
  • 291942Z 22005KT 10SM SKC 27/05 A3005 RMK CU S

EXPIRED METARs :
  • 291850Z 00000KT 10SM SKC 26/00 A3007 RMK CU S
  • 291803Z RTD 20005KT 10SM SKC 25/05 A3011 RMK CI

TAF TAF MMCB
Valid from the 29 at 18:00 until the 30 at 18:00 UTC


291556Z 2918/3018 19010KT P6SM SCT120 SCT220
FM300300 00000KT P6SM SCT220
FM301600 16006KT P6SM SCT220



MET'MAP, your aeronautical weather chart ! - Copyright ORBIFLY December 2007 - Disclaimer

ORBIFLY MET'MAP TEAM :

Programming & Development : Alexandra Zaïnal
Concept & original design : Baudouin d'Aumeries
Assistance for programming : Marc-Olivier Méhu
Technical & hardware support : Manuel Goepfert

Contact : metmap@orbifly.com




SOURCES & CREDITS :

   NOAA       Earth
Advisory